Aérodrome :
LOGIN :

S'inscrire | Disclaimer

   EN    FR    IT 

 










Légende :    VFR   VFR Marginal   IFR   IFR Intensif   IFR Très Intensif
Visi : 
Plafond : 
>= 8 km
>= 3000ft
5 à 8 km
1000 à 3000 ft
1500m à 5 km
500 à 1000 ft
800 à 1500m
200 à 500 ft
< 800m
< 200 ft
Symboles :   Orages  Brouillard  Fortes neiges  Fortes précipitations  Vent > 20 kt
SIGMETs :   Divers  Orages  Givrage  Turbulence  Onde Orograph.  Cendres Volcan.







- Altitude de l'aérodrome : 290 ft
- Code IATA : ACI
- Voir les cartes d'approche


EGJA - Alderney

DERNIER METAR :
  • 250920Z 07012KT CAVOK 19/// Q1026

METARs EXPIRÉS :
  • 250850Z 06011KT CAVOK 19/// Q1026
  • 250820Z 06011KT CAVOK 18/// Q1026
  • 250750Z 06010KT CAVOK 17/// Q1026
  • 250720Z 07011KT CAVOK 17/// Q1026
  • 250650Z 07011KT CAVOK 16/// Q1026

TAF TAF EGJA
Valide du 25 à 09h jusqu'au 25 à 18h UTC


250755Z 2509/2518 06010KT CAVOK
Pas de NOTAMs connus pour ce terrain.



MET'MAP, la Météo Aéronautique d'un coup d'oeil ! - Copyright ORBIFLY Décembre 2007 - Disclaimer

ORBIFLY MET'MAP TEAM :

Programmation & Développement : Alexandra Zaïnal
Conception & Développement : Baudouin d'Aumeries
Co-Programmation & Développement : Marc-Olivier Méhu
Soutien technique & logistique : Manuel Goepfert

Contact : metmap@orbifly.com




SOURCES & CREDITS :

   NOAA